sensor_id;sensor_type;location;lat;lon;timestamp;pressure;altitude;pressure_sealevel;temperature
49785;BMP280;35679;38.732;-121.358;2023-08-06T00:00:12;100747.72;;;30.47
49785;BMP280;35679;38.732;-121.358;2023-08-06T00:03:02;100750.47;;;30.47
49785;BMP280;35679;38.732;-121.358;2023-08-06T00:05:53;100746.31;;;30.50
49785;BMP280;35679;38.732;-121.358;2023-08-06T00:08:43;100740.88;;;30.50
49785;BMP280;35679;38.732;-121.358;2023-08-06T00:11:32;100748.44;;;30.53
49785;BMP280;35679;38.732;-121.358;2023-08-06T00:14:21;100731.84;;;30.54
49785;BMP280;35679;38.732;-121.358;2023-08-06T00:17:11;100729.59;;;30.56
49785;BMP280;35679;38.732;-121.358;2023-08-06T00:20:02;100732.84;;;30.58
49785;BMP280;35679;38.732;-121.358;2023-08-06T00:22:53;100721.66;;;30.59
49785;BMP280;35679;38.732;-121.358;2023-08-06T00:25:42;100724.06;;;30.61
49785;BMP280;35679;38.732;-121.358;2023-08-06T00:28:32;100710.97;;;30.63
49785;BMP280;35679;38.732;-121.358;2023-08-06T00:31:21;100714.50;;;30.63
49785;BMP280;35679;38.732;-121.358;2023-08-06T00:34:11;100707.16;;;30.64
49785;BMP280;35679;38.732;-121.358;2023-08-06T00:37:00;100706.84;;;30.65
49785;BMP280;35679;38.732;-121.358;2023-08-06T00:39:49;100710.38;;;30.66
49785;BMP280;35679;38.732;-121.358;2023-08-06T00:42:39;100706.22;;;30.68
49785;BMP280;35679;38.732;-121.358;2023-08-06T00:45:30;100710.59;;;30.69
49785;BMP280;35679;38.732;-121.358;2023-08-06T00:48:19;100702.09;;;30.71
49785;BMP280;35679;38.732;-121.358;2023-08-06T00:51:10;100701.81;;;30.72
49785;BMP280;35679;38.732;-121.358;2023-08-06T00:54:00;100700.69;;;30.73
49785;BMP280;35679;38.732;-121.358;2023-08-06T00:56:50;100692.25;;;30.75
49785;BMP280;35679;38.732;-121.358;2023-08-06T00:59:39;100684.88;;;30.75
49785;BMP280;35679;38.732;-121.358;2023-08-06T01:02:29;100691.94;;;30.76
49785;BMP280;35679;38.732;-121.358;2023-08-06T01:05:20;100684.56;;;30.77
49785;BMP280;35679;38.732;-121.358;2023-08-06T01:08:46;100688.91;;;30.78
49785;BMP280;35679;38.732;-121.358;2023-08-06T01:11:48;100690.53;;;30.79
49785;BMP280;35679;38.732;-121.358;2023-08-06T01:17:42;100689.91;;;30.82
49785;BMP280;35679;38.732;-121.358;2023-08-06T01:20:31;100686.88;;;30.83
49785;BMP280;35679;38.732;-121.358;2023-08-06T01:23:21;100673.00;;;30.85
49785;BMP280;35679;38.732;-121.358;2023-08-06T01:26:22;100676.50;;;30.85
49785;BMP280;35679;38.732;-121.358;2023-08-06T01:29:22;100677.81;;;30.88
49785;BMP280;35679;38.732;-121.358;2023-08-06T01:32:14;100678.63;;;30.88
49785;BMP280;35679;38.732;-121.358;2023-08-06T01:35:05;100675.63;;;30.90
49785;BMP280;35679;38.732;-121.358;2023-08-06T01:37:54;100665.50;;;30.90
49785;BMP280;35679;38.732;-121.358;2023-08-06T01:40:45;100670.66;;;30.92
49785;BMP280;35679;38.732;-121.358;2023-08-06T01:43:34;100668.44;;;30.94
49785;BMP280;35679;38.732;-121.358;2023-08-06T01:46:23;100665.72;;;30.94
49785;BMP280;35679;38.732;-121.358;2023-08-06T01:49:13;100665.72;;;30.94
49785;BMP280;35679;38.732;-121.358;2023-08-06T01:52:03;100665.41;;;30.95
49785;BMP280;35679;38.732;-121.358;2023-08-06T01:54:53;100661.91;;;30.95
49785;BMP280;35679;38.732;-121.358;2023-08-06T01:57:42;100665.97;;;30.97
49785;BMP280;35679;38.732;-121.358;2023-08-06T02:00:33;100662.41;;;30.97
49785;BMP280;35679;38.732;-121.358;2023-08-06T02:03:22;100661.63;;;30.96
49785;BMP280;35679;38.732;-121.358;2023-08-06T02:06:12;100663.78;;;30.94
49785;BMP280;35679;38.732;-121.358;2023-08-06T02:09:05;100670.88;;;30.95
49785;BMP280;35679;38.732;-121.358;2023-08-06T02:11:56;100675.75;;;30.98
49785;BMP280;35679;38.732;-121.358;2023-08-06T02:14:45;100665.13;;;30.97
49785;BMP280;35679;38.732;-121.358;2023-08-06T02:17:34;100669.47;;;30.98
49785;BMP280;35679;38.732;-121.358;2023-08-06T02:20:24;100668.38;;;30.99
49785;BMP280;35679;38.732;-121.358;2023-08-06T02:23:14;100671.41;;;30.97
49785;BMP280;35679;38.732;-121.358;2023-08-06T02:26:04;100670.31;;;30.98
49785;BMP280;35679;38.732;-121.358;2023-08-06T02:28:54;100663.25;;;30.97
49785;BMP280;35679;38.732;-121.358;2023-08-06T02:31:43;100674.41;;;30.96
49785;BMP280;35679;38.732;-121.358;2023-08-06T02:34:33;100669.78;;;30.96
49785;BMP280;35679;38.732;-121.358;2023-08-06T02:37:22;100668.13;;;30.95
49785;BMP280;35679;38.732;-121.358;2023-08-06T02:40:11;100670.06;;;30.95
49785;BMP280;35679;38.732;-121.358;2023-08-06T02:43:01;100664.91;;;30.93
49785;BMP280;35679;38.732;-121.358;2023-08-06T02:45:51;100671.19;;;30.94
49785;BMP280;35679;38.732;-121.358;2023-08-06T02:48:40;100673.06;;;30.93
49785;BMP280;35679;38.732;-121.358;2023-08-06T02:51:29;100672.28;;;30.93
49785;BMP280;35679;38.732;-121.358;2023-08-06T02:54:19;100668.75;;;30.92
49785;BMP280;35679;38.732;-121.358;2023-08-06T02:57:09;100668.75;;;30.92
49785;BMP280;35679;38.732;-121.358;2023-08-06T02:59:58;100667.13;;;30.91
49785;BMP280;35679;38.732;-121.358;2023-08-06T03:02:48;100674.22;;;30.92
49785;BMP280;35679;38.732;-121.358;2023-08-06T03:05:52;100680.75;;;30.91
49785;BMP280;35679;38.732;-121.358;2023-08-06T03:08:55;100683.78;;;30.90
49785;BMP280;35679;38.732;-121.358;2023-08-06T03:11:45;100686.50;;;30.90
49785;BMP280;35679;38.732;-121.358;2023-08-06T03:14:35;100679.75;;;30.87
49785;BMP280;35679;38.732;-121.358;2023-08-06T03:17:27;100686.00;;;30.88
49785;BMP280;35679;38.732;-121.358;2023-08-06T03:20:16;100685.47;;;30.86
49785;BMP280;35679;38.732;-121.358;2023-08-06T03:23:06;100691.75;;;30.86
49785;BMP280;35679;38.732;-121.358;2023-08-06T03:25:56;100690.44;;;30.84
49785;BMP280;35679;38.732;-121.358;2023-08-06T03:28:45;100689.63;;;30.83
49785;BMP280;35679;38.732;-121.358;2023-08-06T03:31:35;100697.00;;;30.83
49785;BMP280;35679;38.732;-121.358;2023-08-06T03:34:25;100700.03;;;30.81
49785;BMP280;35679;38.732;-121.358;2023-08-06T03:37:14;100699.19;;;30.81
49785;BMP280;35679;38.732;-121.358;2023-08-06T03:40:04;100703.84;;;30.80
49785;BMP280;35679;38.732;-121.358;2023-08-06T03:42:54;100701.44;;;30.79
49785;BMP280;35679;38.732;-121.358;2023-08-06T03:45:44;100711.81;;;30.77
49785;BMP280;35679;38.732;-121.358;2023-08-06T03:48:33;100712.13;;;30.75
49785;BMP280;35679;38.732;-121.358;2023-08-06T03:51:23;100715.16;;;30.74
49785;BMP280;35679;38.732;-121.358;2023-08-06T03:54:13;100713.53;;;30.73
49785;BMP280;35679;38.732;-121.358;2023-08-06T03:57:03;100719.75;;;30.73
49785;BMP280;35679;38.732;-121.358;2023-08-06T03:59:52;100719.28;;;30.71
49785;BMP280;35679;38.732;-121.358;2023-08-06T04:02:45;100718.75;;;30.69
49785;BMP280;35679;38.732;-121.358;2023-08-06T04:05:34;100722.56;;;30.68
49785;BMP280;35679;38.732;-121.358;2023-08-06T04:08:24;100728.03;;;30.68
49785;BMP280;35679;38.732;-121.358;2023-08-06T04:11:13;100727.22;;;30.68
49785;BMP280;35679;38.732;-121.358;2023-08-06T04:14:03;100736.50;;;30.67
49785;BMP280;35679;38.732;-121.358;2023-08-06T04:16:52;100741.16;;;30.66
49785;BMP280;35679;38.732;-121.358;2023-08-06T04:19:41;100744.97;;;30.65
49785;BMP280;35679;38.732;-121.358;2023-08-06T04:22:31;100746.59;;;30.66
49785;BMP280;35679;38.732;-121.358;2023-08-06T04:25:20;100744.16;;;30.65
49785;BMP280;35679;38.732;-121.358;2023-08-06T04:28:10;100750.72;;;30.64
49785;BMP280;35679;38.732;-121.358;2023-08-06T04:31:00;100757.28;;;30.63
49785;BMP280;35679;38.732;-121.358;2023-08-06T04:33:51;100752.94;;;30.62
49785;BMP280;35679;38.732;-121.358;2023-08-06T04:36:41;100755.97;;;30.60
49785;BMP280;35679;38.732;-121.358;2023-08-06T04:39:30;100760.59;;;30.60
49785;BMP280;35679;38.732;-121.358;2023-08-06T04:42:20;100757.06;;;30.59
49785;BMP280;35679;38.732;-121.358;2023-08-06T04:45:12;100763.59;;;30.58
49785;BMP280;35679;38.732;-121.358;2023-08-06T04:48:01;100766.34;;;30.58
49785;BMP280;35679;38.732;-121.358;2023-08-06T04:50:51;100764.72;;;30.57
49785;BMP280;35679;38.732;-121.358;2023-08-06T04:53:40;100771.28;;;30.57
49785;BMP280;35679;38.732;-121.358;2023-08-06T04:56:30;100777.00;;;30.55
49785;BMP280;35679;38.732;-121.358;2023-08-06T04:59:20;100778.13;;;30.54
49785;BMP280;35679;38.732;-121.358;2023-08-06T05:02:10;100774.59;;;30.54
49785;BMP280;35679;38.732;-121.358;2023-08-06T05:04:59;100785.78;;;30.52
49785;BMP280;35679;38.732;-121.358;2023-08-06T05:07:49;100791.53;;;30.51
49785;BMP280;35679;38.732;-121.358;2023-08-06T05:10:42;100787.97;;;30.50
49785;BMP280;35679;38.732;-121.358;2023-08-06T05:13:32;100783.66;;;30.49
49785;BMP280;35679;38.732;-121.358;2023-08-06T05:16:21;100792.09;;;30.48
49785;BMP280;35679;38.732;-121.358;2023-08-06T05:19:11;100797.84;;;30.46
49785;BMP280;35679;38.732;-121.358;2023-08-06T05:22:00;100797.06;;;30.46
49785;BMP280;35679;38.732;-121.358;2023-08-06T05:24:50;100794.59;;;30.44
49785;BMP280;35679;38.732;-121.358;2023-08-06T05:27:40;100796.53;;;30.44
49785;BMP280;35679;38.732;-121.358;2023-08-06T05:30:29;100788.09;;;30.40
49785;BMP280;35679;38.732;-121.358;2023-08-06T05:33:19;100802.53;;;30.41
49785;BMP280;35679;38.732;-121.358;2023-08-06T05:36:08;100800.09;;;30.39
49785;BMP280;35679;38.732;-121.358;2023-08-06T05:38:57;100809.66;;;30.37
49785;BMP280;35679;38.732;-121.358;2023-08-06T05:41:47;100809.97;;;30.35
49785;BMP280;35679;38.732;-121.358;2023-08-06T05:44:36;100811.06;;;30.34
49785;BMP280;35679;38.732;-121.358;2023-08-06T05:47:26;100805.41;;;30.31
49785;BMP280;35679;38.732;-121.358;2023-08-06T05:50:16;100812.97;;;30.34
49785;BMP280;35679;38.732;-121.358;2023-08-06T05:53:05;100816.00;;;30.32
49785;BMP280;35679;38.732;-121.358;2023-08-06T05:55:54;100811.97;;;30.30
49785;BMP280;35679;38.732;-121.358;2023-08-06T05:58:44;100818.50;;;30.29
49785;BMP280;35679;38.732;-121.358;2023-08-06T06:01:35;100817.97;;;30.27
49785;BMP280;35679;38.732;-121.358;2023-08-06T06:04:25;100827.25;;;30.26
49785;BMP280;35679;38.732;-121.358;2023-08-06T06:07:14;100827.03;;;30.22
49785;BMP280;35679;38.732;-121.358;2023-08-06T06:10:04;100831.94;;;30.20
49785;BMP280;35679;38.732;-121.358;2023-08-06T06:12:54;100833.06;;;30.19
49785;BMP280;35679;38.732;-121.358;2023-08-06T06:15:43;100842.91;;;30.15
49785;BMP280;35679;38.732;-121.358;2023-08-06T06:18:33;100844.00;;;30.14
49785;BMP280;35679;38.732;-121.358;2023-08-06T06:21:22;100845.09;;;30.13
49785;BMP280;35679;38.732;-121.358;2023-08-06T06:24:11;100847.31;;;30.11
49785;BMP280;35679;38.732;-121.358;2023-08-06T06:27:01;100841.06;;;30.11
49785;BMP280;35679;38.732;-121.358;2023-08-06T06:29:51;100851.44;;;30.09
49785;BMP280;35679;38.732;-121.358;2023-08-06T06:32:41;100854.72;;;30.06
49785;BMP280;35679;38.732;-121.358;2023-08-06T06:35:30;100864.03;;;30.05
49785;BMP280;35679;38.732;-121.358;2023-08-06T06:38:20;100864.22;;;30.08
49785;BMP280;35679;38.732;-121.358;2023-08-06T06:41:09;100858.78;;;30.08
49785;BMP280;35679;38.732;-121.358;2023-08-06T06:43:59;100863.72;;;30.06
49785;BMP280;35679;38.732;-121.358;2023-08-06T06:46:48;100859.94;;;30.02
49785;BMP280;35679;38.732;-121.358;2023-08-06T06:49:37;100864.59;;;30.02
49785;BMP280;35679;38.732;-121.358;2023-08-06T06:52:27;100864.06;;;30.00
49785;BMP280;35679;38.732;-121.358;2023-08-06T06:55:16;100859.19;;;29.97
49785;BMP280;35679;38.732;-121.358;2023-08-06T06:58:06;100862.50;;;29.94
49785;BMP280;35679;38.732;-121.358;2023-08-06T07:00:55;100867.97;;;29.94
49785;BMP280;35679;38.732;-121.358;2023-08-06T07:03:45;100861.97;;;29.92
49785;BMP280;35679;38.732;-121.358;2023-08-06T07:06:35;100852.19;;;29.91
49785;BMP280;35679;38.732;-121.358;2023-08-06T07:09:25;100860.94;;;29.88
49785;BMP280;35679;38.732;-121.358;2023-08-06T07:12:14;100861.47;;;29.85
49785;BMP280;35679;38.732;-121.358;2023-08-06T07:15:08;100854.44;;;29.84
49785;BMP280;35679;38.732;-121.358;2023-08-06T07:17:57;100854.72;;;29.83
49785;BMP280;35679;38.732;-121.358;2023-08-06T07:20:50;100861.84;;;29.79
49785;BMP280;35679;38.732;-121.358;2023-08-06T07:23:40;100854.53;;;29.74
49785;BMP280;35679;38.732;-121.358;2023-08-06T07:26:29;100854.81;;;29.73
49785;BMP280;35679;38.732;-121.358;2023-08-06T07:29:18;100855.13;;;29.71
49785;BMP280;35679;38.732;-121.358;2023-08-06T07:32:10;100857.59;;;29.68
49785;BMP280;35679;38.732;-121.358;2023-08-06T07:34:59;100861.41;;;29.67
49785;BMP280;35679;38.732;-121.358;2023-08-06T07:37:49;100855.19;;;29.66
49785;BMP280;35679;38.732;-121.358;2023-08-06T07:40:38;100851.91;;;29.64
49785;BMP280;35679;38.732;-121.358;2023-08-06T07:43:28;100855.78;;;29.63
49785;BMP280;35679;38.732;-121.358;2023-08-06T07:46:17;100854.69;;;29.59
49785;BMP280;35679;38.732;-121.358;2023-08-06T07:49:07;100862.34;;;29.57
49785;BMP280;35679;38.732;-121.358;2023-08-06T07:51:56;100859.38;;;29.54
49785;BMP280;35679;38.732;-121.358;2023-08-06T07:54:46;100850.69;;;29.52
49785;BMP280;35679;38.732;-121.358;2023-08-06T07:57:35;100847.75;;;29.48
49785;BMP280;35679;38.732;-121.358;2023-08-06T08:00:24;100855.41;;;29.46
49785;BMP280;35679;38.732;-121.358;2023-08-06T08:03:15;100856.53;;;29.40
49785;BMP280;35679;38.732;-121.358;2023-08-06T08:06:05;100854.91;;;29.39
49785;BMP280;35679;38.732;-121.358;2023-08-06T08:08:54;100853.28;;;29.38
49785;BMP280;35679;38.732;-121.358;2023-08-06T08:11:43;100847.34;;;29.36
49785;BMP280;35679;38.732;-121.358;2023-08-06T08:14:33;100852.25;;;29.34
49785;BMP280;35679;38.732;-121.358;2023-08-06T08:17:28;100861.47;;;29.33
49785;BMP280;35679;38.732;-121.358;2023-08-06T08:20:18;100860.41;;;29.29
49785;BMP280;35679;38.732;-121.358;2023-08-06T08:23:07;100863.41;;;29.28
49785;BMP280;35679;38.732;-121.358;2023-08-06T08:25:57;100857.16;;;29.27
49785;BMP280;35679;38.732;-121.358;2023-08-06T08:28:46;100848.50;;;29.25
49785;BMP280;35679;38.732;-121.358;2023-08-06T08:31:35;100843.06;;;29.25
49785;BMP280;35679;38.732;-121.358;2023-08-06T08:34:28;100842.53;;;29.23
49785;BMP280;35679;38.732;-121.358;2023-08-06T08:37:18;100845.53;;;29.22
49785;BMP280;35679;38.732;-121.358;2023-08-06T08:40:08;100850.53;;;29.10
49785;BMP280;35679;38.732;-121.358;2023-08-06T08:42:58;100854.88;;;29.11
49785;BMP280;35679;38.732;-121.358;2023-08-06T08:45:51;100848.34;;;29.12
49785;BMP280;35679;38.732;-121.358;2023-08-06T08:48:41;100841.88;;;29.08
49785;BMP280;35679;38.732;-121.358;2023-08-06T08:51:31;100850.84;;;29.04
49785;BMP280;35679;38.732;-121.358;2023-08-06T08:54:23;100848.94;;;29.04
49785;BMP280;35679;38.732;-121.358;2023-08-06T08:57:13;100843.50;;;29.04
49785;BMP280;35679;38.732;-121.358;2023-08-06T09:00:02;100838.06;;;29.04
49785;BMP280;35679;38.732;-121.358;2023-08-06T09:02:53;100839.44;;;29.02
49785;BMP280;35679;38.732;-121.358;2023-08-06T09:05:44;100837.31;;;28.99
49785;BMP280;35679;38.732;-121.358;2023-08-06T09:08:37;100835.97;;;28.96
49785;BMP280;35679;38.732;-121.358;2023-08-06T09:11:29;100834.94;;;28.92
49785;BMP280;35679;38.732;-121.358;2023-08-06T09:14:27;100825.16;;;28.91
49785;BMP280;35679;38.732;-121.358;2023-08-06T09:17:16;100828.66;;;28.92
49785;BMP280;35679;38.732;-121.358;2023-08-06T09:20:12;100825.72;;;28.88
49785;BMP280;35679;38.732;-121.358;2023-08-06T09:23:10;100836.34;;;28.85
49785;BMP280;35679;38.732;-121.358;2023-08-06T09:26:00;100832.59;;;28.76
49785;BMP280;35679;38.732;-121.358;2023-08-06T09:28:52;100838.88;;;28.71
49785;BMP280;35679;38.732;-121.358;2023-08-06T09:31:43;100839.16;;;28.70
49785;BMP280;35679;38.732;-121.358;2023-08-06T09:34:33;100842.97;;;28.69
49785;BMP280;35679;38.732;-121.358;2023-08-06T09:37:22;100844.84;;;28.68
49785;BMP280;35679;38.732;-121.358;2023-08-06T09:40:24;100839.69;;;28.67
49785;BMP280;35679;38.732;-121.358;2023-08-06T09:43:14;100843.25;;;28.62
49785;BMP280;35679;38.732;-121.358;2023-08-06T09:46:11;100843.53;;;28.61
49785;BMP280;35679;38.732;-121.358;2023-08-06T09:49:02;100843.25;;;28.62
49785;BMP280;35679;38.732;-121.358;2023-08-06T09:51:53;100837.03;;;28.62
49785;BMP280;35679;38.732;-121.358;2023-08-06T09:54:44;100851.16;;;28.59
49785;BMP280;35679;38.732;-121.358;2023-08-06T09:57:35;100851.44;;;28.57
49785;BMP280;35679;38.732;-121.358;2023-08-06T10:00:25;100858.78;;;28.57
49785;BMP280;35679;38.732;-121.358;2023-08-06T10:03:15;100861.56;;;28.47
49785;BMP280;35679;38.732;-121.358;2023-08-06T10:06:07;100866.72;;;28.44
49785;BMP280;35679;38.732;-121.358;2023-08-06T10:08:58;100875.97;;;28.43
49785;BMP280;35679;38.732;-121.358;2023-08-06T10:11:50;100874.34;;;28.42
49785;BMP280;35679;38.732;-121.358;2023-08-06T10:14:42;100881.13;;;28.39
49785;BMP280;35679;38.732;-121.358;2023-08-06T10:17:33;100885.50;;;28.35
49785;BMP280;35679;38.732;-121.358;2023-08-06T10:20:37;100880.34;;;28.34
49785;BMP280;35679;38.732;-121.358;2023-08-06T10:23:34;100879.81;;;28.32
49785;BMP280;35679;38.732;-121.358;2023-08-06T10:26:28;100877.38;;;28.30
49785;BMP280;35679;38.732;-121.358;2023-08-06T10:29:37;100889.59;;;28.28
49785;BMP280;35679;38.732;-121.358;2023-08-06T10:32:49;100886.38;;;28.26
49785;BMP280;35679;38.732;-121.358;2023-08-06T10:35:50;100891.53;;;28.22
49785;BMP280;35679;38.732;-121.358;2023-08-06T10:38:47;100888.28;;;28.20
49785;BMP280;35679;38.732;-121.358;2023-08-06T10:41:37;100894.53;;;28.21
49785;BMP280;35679;38.732;-121.358;2023-08-06T10:44:27;100897.00;;;28.17
49785;BMP280;35679;38.732;-121.358;2023-08-06T10:47:28;100894.50;;;28.16
49785;BMP280;35679;38.732;-121.358;2023-08-06T10:50:18;100894.78;;;28.14
49785;BMP280;35679;38.732;-121.358;2023-08-06T10:53:07;100898.06;;;28.11
49785;BMP280;35679;38.732;-121.358;2023-08-06T10:55:57;100881.25;;;28.09
49785;BMP280;35679;38.732;-121.358;2023-08-06T10:58:48;100894.28;;;28.07
49785;BMP280;35679;38.732;-121.358;2023-08-06T11:01:38;100893.47;;;28.07
49785;BMP280;35679;38.732;-121.358;2023-08-06T11:04:30;100890.22;;;28.05
49785;BMP280;35679;38.732;-121.358;2023-08-06T11:07:20;100889.13;;;28.01
49785;BMP280;35679;38.732;-121.358;2023-08-06T11:10:12;100882.13;;;28.00
49785;BMP280;35679;38.732;-121.358;2023-08-06T11:13:03;100879.66;;;27.98
49785;BMP280;35679;38.732;-121.358;2023-08-06T11:15:52;100873.78;;;27.67
49785;BMP280;35679;38.732;-121.358;2023-08-06T11:18:42;100882.22;;;27.06
49785;BMP280;35679;38.732;-121.358;2023-08-06T11:21:32;100882.97;;;26.81
49785;BMP280;35679;38.732;-121.358;2023-08-06T11:24:24;100884.81;;;26.56
49785;BMP280;35679;38.732;-121.358;2023-08-06T11:27:14;100889.91;;;26.43
49785;BMP280;35679;38.732;-121.358;2023-08-06T11:30:04;100879.53;;;26.20
49785;BMP280;35679;38.732;-121.358;2023-08-06T11:32:56;100882.44;;;26.08
49785;BMP280;35679;38.732;-121.358;2023-08-06T11:35:46;100882.94;;;26.00
49785;BMP280;35679;38.732;-121.358;2023-08-06T11:38:35;100894.75;;;25.80
49785;BMP280;35679;38.732;-121.358;2023-08-06T11:41:25;100892.75;;;25.70
49785;BMP280;35679;38.732;-121.358;2023-08-06T11:44:14;100892.16;;;25.58
49785;BMP280;35679;38.732;-121.358;2023-08-06T11:47:05;100893.69;;;25.49
49785;BMP280;35679;38.732;-121.358;2023-08-06T11:49:55;100900.09;;;25.38
49785;BMP280;35679;38.732;-121.358;2023-08-06T11:52:44;100895.19;;;25.30
49785;BMP280;35679;38.732;-121.358;2023-08-06T11:55:35;100901.00;;;25.17
49785;BMP280;35679;38.732;-121.358;2023-08-06T11:58:24;100891.47;;;25.10
49785;BMP280;35679;38.732;-121.358;2023-08-06T12:01:14;100898.63;;;24.95
49785;BMP280;35679;38.732;-121.358;2023-08-06T12:04:04;100901.81;;;24.92
49785;BMP280;35679;38.732;-121.358;2023-08-06T12:06:54;100901.94;;;24.75
49785;BMP280;35679;38.732;-121.358;2023-08-06T12:09:44;100904.63;;;24.75
49785;BMP280;35679;38.732;-121.358;2023-08-06T12:12:34;100892.66;;;24.66
49785;BMP280;35679;38.732;-121.358;2023-08-06T12:15:24;100894.47;;;24.61
49785;BMP280;35679;38.732;-121.358;2023-08-06T12:18:13;100904.16;;;24.57
49785;BMP280;35679;38.732;-121.358;2023-08-06T12:21:03;100902.72;;;24.49
49785;BMP280;35679;38.732;-121.358;2023-08-06T12:23:52;100905.69;;;24.48
49785;BMP280;35679;38.732;-121.358;2023-08-06T12:26:41;100914.25;;;24.45
49785;BMP280;35679;38.732;-121.358;2023-08-06T12:29:31;100921.72;;;24.38
49785;BMP280;35679;38.732;-121.358;2023-08-06T12:32:20;100923.53;;;24.33
49785;BMP280;35679;38.732;-121.358;2023-08-06T12:35:10;100928.38;;;24.31
49785;BMP280;35679;38.732;-121.358;2023-08-06T12:38:00;100929.06;;;24.21
49785;BMP280;35679;38.732;-121.358;2023-08-06T12:40:49;100928.13;;;24.11
49785;BMP280;35679;38.732;-121.358;2023-08-06T12:43:38;100931.09;;;24.14
49785;BMP280;35679;38.732;-121.358;2023-08-06T12:46:28;100931.22;;;24.03
49785;BMP280;35679;38.732;-121.358;2023-08-06T12:49:21;100936.63;;;24.03
49785;BMP280;35679;38.732;-121.358;2023-08-06T12:52:10;100937.19;;;24.05
49785;BMP280;35679;38.732;-121.358;2023-08-06T12:55:01;100939.00;;;23.99
49785;BMP280;35679;38.732;-121.358;2023-08-06T12:57:50;100947.84;;;23.95
49785;BMP280;35679;38.732;-121.358;2023-08-06T13:00:45;100943.19;;;23.90
49785;BMP280;35679;38.732;-121.358;2023-08-06T13:03:35;100953.56;;;23.82
49785;BMP280;35679;38.732;-121.358;2023-08-06T13:06:24;100952.19;;;23.79
49785;BMP280;35679;38.732;-121.358;2023-08-06T13:09:14;100946.72;;;23.75
49785;BMP280;35679;38.732;-121.358;2023-08-06T13:14:54;100947.34;;;23.65
49785;BMP280;35679;38.732;-121.358;2023-08-06T13:17:46;100954.13;;;23.68
49785;BMP280;35679;38.732;-121.358;2023-08-06T13:20:38;100954.63;;;23.65
49785;BMP280;35679;38.732;-121.358;2023-08-06T13:23:30;100956.19;;;23.61
49785;BMP280;35679;38.732;-121.358;2023-08-06T13:26:19;100962.22;;;23.51
49785;BMP280;35679;38.732;-121.358;2023-08-06T13:29:09;100960.91;;;23.37
49785;BMP280;35679;38.732;-121.358;2023-08-06T13:31:59;100969.63;;;23.28
49785;BMP280;35679;38.732;-121.358;2023-08-06T13:34:49;100977.63;;;23.23
49785;BMP280;35679;38.732;-121.358;2023-08-06T13:37:38;100975.44;;;23.20
49785;BMP280;35679;38.732;-121.358;2023-08-06T13:40:29;100975.00;;;23.12
49785;BMP280;35679;38.732;-121.358;2023-08-06T13:43:21;100976.13;;;23.15
49785;BMP280;35679;38.732;-121.358;2023-08-06T13:46:11;100972.31;;;23.12
49785;BMP280;35679;38.732;-121.358;2023-08-06T13:49:05;100976.75;;;23.06
49785;BMP280;35679;38.732;-121.358;2023-08-06T13:51:54;100967.53;;;23.02
49785;BMP280;35679;38.732;-121.358;2023-08-06T13:54:58;100977.94;;;23.10
49785;BMP280;35679;38.732;-121.358;2023-08-06T13:57:48;100980.84;;;23.09
49785;BMP280;35679;38.732;-121.358;2023-08-06T14:00:38;100984.84;;;23.06
49785;BMP280;35679;38.732;-121.358;2023-08-06T14:03:27;100976.44;;;23.03
49785;BMP280;35679;38.732;-121.358;2023-08-06T14:06:17;100983.53;;;23.09
49785;BMP280;35679;38.732;-121.358;2023-08-06T14:09:07;100978.66;;;23.06
49785;BMP280;35679;38.732;-121.358;2023-08-06T14:11:56;100983.53;;;23.09
49785;BMP280;35679;38.732;-121.358;2023-08-06T14:14:46;100982.63;;;23.03
49785;BMP280;35679;38.732;-121.358;2023-08-06T14:17:35;100980.50;;;23.05
49785;BMP280;35679;38.732;-121.358;2023-08-06T14:20:24;100981.09;;;23.07
49785;BMP280;35679;38.732;-121.358;2023-08-06T14:23:13;100987.88;;;23.10
49785;BMP280;35679;38.732;-121.358;2023-08-06T14:26:03;100986.91;;;23.15
49785;BMP280;35679;38.732;-121.358;2023-08-06T14:28:52;100992.38;;;23.20
49785;BMP280;35679;38.732;-121.358;2023-08-06T14:31:43;100989.44;;;23.22
49785;BMP280;35679;38.732;-121.358;2023-08-06T14:34:32;100991.16;;;23.28
49785;BMP280;35679;38.732;-121.358;2023-08-06T14:37:22;100998.75;;;23.31
49785;BMP280;35679;38.732;-121.358;2023-08-06T14:40:11;101000.63;;;23.30
49785;BMP280;35679;38.732;-121.358;2023-08-06T14:43:01;100997.56;;;23.38
49785;BMP280;35679;38.732;-121.358;2023-08-06T14:45:51;100999.50;;;23.43
49785;BMP280;35679;38.732;-121.358;2023-08-06T14:48:41;101000.72;;;23.52
49785;BMP280;35679;38.732;-121.358;2023-08-06T14:51:31;100998.16;;;23.57
49785;BMP280;35679;38.732;-121.358;2023-08-06T14:54:22;101003.13;;;23.65
49785;BMP280;35679;38.732;-121.358;2023-08-06T14:57:11;101001.31;;;23.70
49785;BMP280;35679;38.732;-121.358;2023-08-06T15:00:02;100998.59;;;23.70
49785;BMP280;35679;38.732;-121.358;2023-08-06T15:02:51;101006.66;;;23.81
49785;BMP280;35679;38.732;-121.358;2023-08-06T15:05:48;101007.00;;;23.85
49785;BMP280;35679;38.732;-121.358;2023-08-06T15:08:38;101009.19;;;23.88
49785;BMP280;35679;38.732;-121.358;2023-08-06T15:11:27;101006.91;;;23.96
49785;BMP280;35679;38.732;-121.358;2023-08-06T15:14:16;101014.22;;;24.17
49785;BMP280;35679;38.732;-121.358;2023-08-06T15:17:06;101017.69;;;24.34
49785;BMP280;35679;38.732;-121.358;2023-08-06T15:19:58;101016.22;;;24.43
49785;BMP280;35679;38.732;-121.358;2023-08-06T15:22:47;101020.63;;;24.49
49785;BMP280;35679;38.732;-121.358;2023-08-06T15:25:37;101014.78;;;24.57
49785;BMP280;35679;38.732;-121.358;2023-08-06T15:28:26;101021.06;;;24.62
49785;BMP280;35679;38.732;-121.358;2023-08-06T15:31:19;101021.94;;;24.68
49785;BMP280;35679;38.732;-121.358;2023-08-06T15:34:10;101020.94;;;24.74